Nearby METAR Reports

 

KSJC - San Jose, California, USA
Distance from station: NE 14km
Actualización: 27/05/2020 00:53
Few Clouds
Few Clouds
 Viento del NO
Viento: NO 26 km/h
Temperatura: 34°C
Rocío: 13°C
Humedad: 28%
Barómetro: 1009.8 hPa
Clouds: Few Clouds
Visibility: 16 km
Cloud details: Few Clouds 1524 m
Few Clouds 2134 m
2020/05/26 22:53 KSJC 262253Z 31014KT 10SM FEW050 FEW070 34/13 A2982 RMK AO2 SLP097 FU FEW050 T03440133
KNUQ - Moffett Nas/Mtn, California, USA
Distance from station: N 14km
Actualización: 26/05/2020 15:55
NOT Current
Despejado
Despejado
 Viento del calm
Viento: Calma
Temperatura: 19°C
Rocío: 14°C
Humedad: 73%
Barómetro: 1011.5 hPa
Clouds: Despejado
Visibility: 16 km
2020/05/26 13:55 KNUQ 261355Z AUTO 00000KT 10SM CLR 19/14 A2987 RMK AO2
 
KPAO - Palo Alto, California, USA
Distance from station: NNO 23km
Actualización: 27/05/2020 00:47
Despejado
Despejado
 Viento del NNO
Viento: NNO 28 km/h
Temperatura: 31°C
Rocío: 14°C
Humedad: 35%
Barómetro: 1010.2 hPa
Clouds: Despejado
Visibility: 16 km
2020/05/26 22:47 KPAO 262247Z 33015KT 10SM SKC 31/14 A2983 RMK LAST
KRHV - San Jose/Reid, California, USA
Distance from station: ENE 19km
Actualización: 27/05/2020 00:50
Despejado
Despejado
 Viento del ONO
Viento: ONO 17 km/h
Temperatura: 37°C
Rocío: 13°C
Humedad: 24%
Barómetro: 1009.8 hPa
Clouds: Despejado
Visibility: 16 km
2020/05/26 22:50 KRHV 262250Z 30009KT 10SM SKC 37/13 A2982
 
KOAK - Oakland, California, USA
Distance from station: NNO 50km
Actualización: 27/05/2020 00:53
Few Clouds
Few Clouds
 Viento del NO
Viento: NO 24 km/h
Temperatura: 29°C
Heat Index: 28°C
Rocío: 14°C
Humedad: 40%
Barómetro: 1010.5 hPa
Clouds: Few Clouds
Visibility: 16 km
Cloud details: Few Clouds 914 m
Few Clouds 6096 m
2020/05/26 22:53 KOAK 262253Z 31013KT 10SM FEW030 FEW200 29/14 A2984 RMK AO2 SLP106 T02940139
KSQL - San Carlos Airpo, California, USA
Distance from station: NO 34km
Actualización: 27/05/2020 00:47
Despejado
Despejado
 Viento del ONO
Viento: ONO 17 km/h
Temperatura: 34°C
Rocío: 12°C
Humedad: 26%
Barómetro: 1010.5 hPa
Clouds: Despejado
Visibility: 16 km
2020/05/26 22:47 KSQL 262247Z 30009KT 10SM SKC 34/12 A2984 RMK DA
 
KSFO - San Francisco, California, USA
Distance from station: NO 49km
Actualización: 27/05/2020 00:56
Few Clouds
Few Clouds
 Viento del O
Viento: O 31 km/h
Temperatura: 29°C
Rocío: 11°C
Humedad: 33%
Barómetro: 1010.5 hPa
Clouds: Few Clouds
Visibility: 16 km
Cloud details: Few Clouds 1372 m
2020/05/26 22:56 KSFO 262256Z 28017KT 10SM FEW045 29/11 A2984 RMK AO2 SLP105 T02940106
KE16 - San Martin, California, USA
Distance from station: ESE 43km
Actualización: 27/05/2020 01:25
Despejado
Despejado
 Viento del SO
Viento: SO 13 km/h
Temperatura: 37°C
Rocío: 11°C
Humedad: 21%
Barómetro: 1010.2 hPa
Clouds: Despejado
Visibility: 16 km
2020/05/26 23:25 KE16 262325Z AUTO 23007KT 10SM CLR 37/11 A2983 RMK AO2
 
KWVI - Watsonville, California, USA
Distance from station: SSE 44km
Actualización: 27/05/2020 00:53
Despejado
Despejado
 Viento del SO
Viento: SO 11 km/h
Temperatura: 29°C
Rocío: 12°C
Humedad: 35%
Barómetro: 1011.5 hPa
Clouds: Despejado
Visibility: 16 km
2020/05/26 22:53 KWVI 262253Z AUTO 23006KT 10SM CLR 29/12 A2987 RMK AO2 SLP114 T02890117
KHAF - Half Moon Bay, California, USA
Distance from station: ONO 50km
Actualización: 27/05/2020 01:35
Haze, Despejado
Haze, Despejado
 Viento del NO
Viento: NO 17 km/h
Temperatura: 20°C
Rocío: 13°C
Humedad: 64%
Barómetro: 1011.9 hPa
Resumen: Haze
Clouds: Despejado
Visibility: 8 km
2020/05/26 23:35 KHAF 262335Z AUTO 31009KT 5SM HZ CLR 20/13 A2988 RMK AO2
 
KHWD - Hayward, California, USA
Distance from station: N 44km
Actualización: 27/05/2020 00:54
Despejado
Despejado
 Viento del ONO
Viento: ONO 24 km/h
Temperatura: 32°C
Rocío: 13°C
Humedad: 31%
Barómetro: 1010.2 hPa
Clouds: Despejado
Visibility: 16 km
2020/05/26 22:54 KHWD 262254Z 29013KT 10SM CLR 32/13 A2983 RMK AO2 SLP111 T03220128
KLVK - Livermore, California, USA
Distance from station: NNE 51km
Actualización: 27/05/2020 00:53
Despejado
Despejado
 Viento del O
Viento: O 17 km/h
Temperatura: 38°C
Rocío: 11°C
Humedad: 20%
Barómetro: 1009.5 hPa
Clouds: Despejado
Visibility: 16 km
2020/05/26 22:53 KLVK 262253Z AUTO 27009KT 10SM CLR 38/11 A2981 RMK AO2 SLP089 T03830111